sensor_id;sensor_type;location;lat;lon;timestamp;temperature;humidity
13332;DHT22;6735;51.456;12.626;2023-11-22T00:00:53;2.10;80.80
13332;DHT22;6735;51.456;12.626;2023-11-22T00:03:18;2.10;80.40
13332;DHT22;6735;51.456;12.626;2023-11-22T00:05:44;2.00;79.80
13332;DHT22;6735;51.456;12.626;2023-11-22T00:08:09;2.00;80.10
13332;DHT22;6735;51.456;12.626;2023-11-22T00:10:35;2.00;79.80
13332;DHT22;6735;51.456;12.626;2023-11-22T00:13:00;2.00;79.30
13332;DHT22;6735;51.456;12.626;2023-11-22T00:15:26;2.00;80.00
13332;DHT22;6735;51.456;12.626;2023-11-22T00:17:52;2.00;79.60
13332;DHT22;6735;51.456;12.626;2023-11-22T00:20:18;2.00;80.00
13332;DHT22;6735;51.456;12.626;2023-11-22T00:22:44;2.00;79.70
13332;DHT22;6735;51.456;12.626;2023-11-22T00:25:10;1.90;79.90
13332;DHT22;6735;51.456;12.626;2023-11-22T00:27:38;2.00;79.90
13332;DHT22;6735;51.456;12.626;2023-11-22T00:30:05;2.00;80.00
13332;DHT22;6735;51.456;12.626;2023-11-22T00:32:30;1.90;80.10
13332;DHT22;6735;51.456;12.626;2023-11-22T00:34:56;1.90;80.00
13332;DHT22;6735;51.456;12.626;2023-11-22T00:37:22;2.00;79.90
13332;DHT22;6735;51.456;12.626;2023-11-22T00:39:48;2.00;80.30
13332;DHT22;6735;51.456;12.626;2023-11-22T00:42:14;1.90;79.80
13332;DHT22;6735;51.456;12.626;2023-11-22T00:44:39;1.90;80.10
13332;DHT22;6735;51.456;12.626;2023-11-22T00:47:05;1.90;79.90
13332;DHT22;6735;51.456;12.626;2023-11-22T00:49:31;1.80;80.00
13332;DHT22;6735;51.456;12.626;2023-11-22T00:51:57;1.80;80.20
13332;DHT22;6735;51.456;12.626;2023-11-22T00:54:23;1.80;80.20
13332;DHT22;6735;51.456;12.626;2023-11-22T00:56:50;1.80;80.10
13332;DHT22;6735;51.456;12.626;2023-11-22T00:59:15;1.80;80.30
13332;DHT22;6735;51.456;12.626;2023-11-22T01:01:41;1.70;80.30
13332;DHT22;6735;51.456;12.626;2023-11-22T01:04:07;1.70;80.20
13332;DHT22;6735;51.456;12.626;2023-11-22T01:06:33;1.70;80.10
13332;DHT22;6735;51.456;12.626;2023-11-22T01:08:59;1.60;80.20
13332;DHT22;6735;51.456;12.626;2023-11-22T01:11:24;1.60;80.50
13332;DHT22;6735;51.456;12.626;2023-11-22T01:13:50;1.60;80.60
13332;DHT22;6735;51.456;12.626;2023-11-22T01:16:16;1.60;80.70
13332;DHT22;6735;51.456;12.626;2023-11-22T01:18:42;1.50;80.70
13332;DHT22;6735;51.456;12.626;2023-11-22T01:21:08;1.40;80.80
13332;DHT22;6735;51.456;12.626;2023-11-22T01:23:34;1.40;80.80
13332;DHT22;6735;51.456;12.626;2023-11-22T01:26:00;1.40;81.10
13332;DHT22;6735;51.456;12.626;2023-11-22T01:28:26;1.30;81.20
13332;DHT22;6735;51.456;12.626;2023-11-22T01:30:54;1.30;81.20
13332;DHT22;6735;51.456;12.626;2023-11-22T01:33:23;1.20;81.30
13332;DHT22;6735;51.456;12.626;2023-11-22T01:35:49;1.10;81.50
13332;DHT22;6735;51.456;12.626;2023-11-22T01:38:15;1.10;81.80
13332;DHT22;6735;51.456;12.626;2023-11-22T01:40:45;1.10;82.00
13332;DHT22;6735;51.456;12.626;2023-11-22T01:43:15;1.00;82.00
13332;DHT22;6735;51.456;12.626;2023-11-22T01:45:41;1.00;82.10
13332;DHT22;6735;51.456;12.626;2023-11-22T01:48:08;1.00;82.20
13332;DHT22;6735;51.456;12.626;2023-11-22T01:50:37;0.90;82.30
13332;DHT22;6735;51.456;12.626;2023-11-22T01:53:02;0.90;82.30
13332;DHT22;6735;51.456;12.626;2023-11-22T01:55:29;0.90;82.30
13332;DHT22;6735;51.456;12.626;2023-11-22T01:57:56;0.80;82.30
13332;DHT22;6735;51.456;12.626;2023-11-22T02:00:23;0.80;82.40
13332;DHT22;6735;51.456;12.626;2023-11-22T02:02:50;0.70;82.30
13332;DHT22;6735;51.456;12.626;2023-11-22T02:05:16;0.70;82.50
13332;DHT22;6735;51.456;12.626;2023-11-22T02:07:42;0.70;82.30
13332;DHT22;6735;51.456;12.626;2023-11-22T02:10:08;0.60;82.50
13332;DHT22;6735;51.456;12.626;2023-11-22T02:12:33;0.60;82.60
13332;DHT22;6735;51.456;12.626;2023-11-22T02:14:59;0.60;82.70
13332;DHT22;6735;51.456;12.626;2023-11-22T02:17:25;0.50;82.90
13332;DHT22;6735;51.456;12.626;2023-11-22T02:19:50;0.50;82.80
13332;DHT22;6735;51.456;12.626;2023-11-22T02:22:17;0.50;82.90
13332;DHT22;6735;51.456;12.626;2023-11-22T02:24:42;0.50;82.80
13332;DHT22;6735;51.456;12.626;2023-11-22T02:27:08;0.50;83.00
13332;DHT22;6735;51.456;12.626;2023-11-22T02:29:34;0.40;82.90
13332;DHT22;6735;51.456;12.626;2023-11-22T02:31:59;0.40;83.10
13332;DHT22;6735;51.456;12.626;2023-11-22T02:34:25;0.40;83.10
13332;DHT22;6735;51.456;12.626;2023-11-22T02:36:50;0.40;83.00
13332;DHT22;6735;51.456;12.626;2023-11-22T02:39:16;0.40;82.90
13332;DHT22;6735;51.456;12.626;2023-11-22T02:41:41;0.30;83.10
13332;DHT22;6735;51.456;12.626;2023-11-22T02:44:07;0.30;83.10
13332;DHT22;6735;51.456;12.626;2023-11-22T02:46:33;0.30;83.00
13332;DHT22;6735;51.456;12.626;2023-11-22T02:48:59;0.30;83.00
13332;DHT22;6735;51.456;12.626;2023-11-22T02:51:24;0.20;83.00
13332;DHT22;6735;51.456;12.626;2023-11-22T02:53:51;0.20;83.20
13332;DHT22;6735;51.456;12.626;2023-11-22T02:56:16;0.30;83.20
13332;DHT22;6735;51.456;12.626;2023-11-22T02:58:42;0.20;83.30
13332;DHT22;6735;51.456;12.626;2023-11-22T03:01:07;0.20;83.30
13332;DHT22;6735;51.456;12.626;2023-11-22T03:03:34;0.20;83.30
13332;DHT22;6735;51.456;12.626;2023-11-22T03:06:00;0.10;83.30
13332;DHT22;6735;51.456;12.626;2023-11-22T03:08:25;0.20;83.50
13332;DHT22;6735;51.456;12.626;2023-11-22T03:11:03;0.10;83.30
13332;DHT22;6735;51.456;12.626;2023-11-22T03:13:29;0.10;83.40
13332;DHT22;6735;51.456;12.626;2023-11-22T03:15:54;0.10;83.30
13332;DHT22;6735;51.456;12.626;2023-11-22T03:18:20;0.10;83.30
13332;DHT22;6735;51.456;12.626;2023-11-22T03:20:46;0.00;83.30
13332;DHT22;6735;51.456;12.626;2023-11-22T03:23:12;0.00;83.30
13332;DHT22;6735;51.456;12.626;2023-11-22T03:25:37;0.00;83.20
13332;DHT22;6735;51.456;12.626;2023-11-22T03:28:03;0.00;83.30
13332;DHT22;6735;51.456;12.626;2023-11-22T03:30:29;0.00;83.60
13332;DHT22;6735;51.456;12.626;2023-11-22T03:32:54;0.00;83.70
13332;DHT22;6735;51.456;12.626;2023-11-22T03:35:21;0.00;83.50
13332;DHT22;6735;51.456;12.626;2023-11-22T03:37:46;0.00;83.50
13332;DHT22;6735;51.456;12.626;2023-11-22T03:40:12;0.00;83.60
13332;DHT22;6735;51.456;12.626;2023-11-22T03:42:39;-0.10;83.60
13332;DHT22;6735;51.456;12.626;2023-11-22T03:45:05;-0.10;83.40
13332;DHT22;6735;51.456;12.626;2023-11-22T03:47:32;-0.10;83.30
13332;DHT22;6735;51.456;12.626;2023-11-22T03:49:58;-0.10;83.40
13332;DHT22;6735;51.456;12.626;2023-11-22T03:52:24;-0.10;83.30
13332;DHT22;6735;51.456;12.626;2023-11-22T03:54:50;-0.10;83.50
13332;DHT22;6735;51.456;12.626;2023-11-22T03:57:15;-0.10;83.50
13332;DHT22;6735;51.456;12.626;2023-11-22T03:59:42;-0.10;83.40
13332;DHT22;6735;51.456;12.626;2023-11-22T04:02:08;-0.20;83.60
13332;DHT22;6735;51.456;12.626;2023-11-22T04:04:34;-0.20;83.80
13332;DHT22;6735;51.456;12.626;2023-11-22T04:07:00;-0.20;83.70
13332;DHT22;6735;51.456;12.626;2023-11-22T04:09:25;-0.20;83.60
13332;DHT22;6735;51.456;12.626;2023-11-22T04:11:51;-0.20;83.70
13332;DHT22;6735;51.456;12.626;2023-11-22T04:14:16;-0.20;83.70
13332;DHT22;6735;51.456;12.626;2023-11-22T04:16:43;-0.20;83.90
13332;DHT22;6735;51.456;12.626;2023-11-22T04:19:09;-0.30;83.70
13332;DHT22;6735;51.456;12.626;2023-11-22T04:21:34;-0.30;83.90
13332;DHT22;6735;51.456;12.626;2023-11-22T04:24:00;-0.30;83.50
13332;DHT22;6735;51.456;12.626;2023-11-22T04:26:26;-0.30;83.60
13332;DHT22;6735;51.456;12.626;2023-11-22T04:28:51;-0.30;83.60
13332;DHT22;6735;51.456;12.626;2023-11-22T04:31:17;-0.30;83.60
13332;DHT22;6735;51.456;12.626;2023-11-22T04:33:43;-0.30;83.70
13332;DHT22;6735;51.456;12.626;2023-11-22T04:36:08;-0.40;83.70
13332;DHT22;6735;51.456;12.626;2023-11-22T04:38:34;-0.40;83.90
13332;DHT22;6735;51.456;12.626;2023-11-22T04:40:59;-0.40;84.00
13332;DHT22;6735;51.456;12.626;2023-11-22T04:43:25;-0.40;83.90
13332;DHT22;6735;51.456;12.626;2023-11-22T04:45:51;-0.40;83.80
13332;DHT22;6735;51.456;12.626;2023-11-22T04:48:16;-0.40;84.00
13332;DHT22;6735;51.456;12.626;2023-11-22T04:50:42;-0.50;84.10
13332;DHT22;6735;51.456;12.626;2023-11-22T04:53:09;-0.40;84.10
13332;DHT22;6735;51.456;12.626;2023-11-22T04:55:35;-0.50;84.10
13332;DHT22;6735;51.456;12.626;2023-11-22T04:58:00;-0.50;84.00
13332;DHT22;6735;51.456;12.626;2023-11-22T05:00:26;-0.50;84.20
13332;DHT22;6735;51.456;12.626;2023-11-22T05:02:51;-0.50;84.10
13332;DHT22;6735;51.456;12.626;2023-11-22T05:05:17;-0.60;84.00
13332;DHT22;6735;51.456;12.626;2023-11-22T05:07:42;-0.60;84.00
13332;DHT22;6735;51.456;12.626;2023-11-22T05:10:10;-0.60;84.20
13332;DHT22;6735;51.456;12.626;2023-11-22T05:12:35;-0.60;84.20
13332;DHT22;6735;51.456;12.626;2023-11-22T05:15:02;-0.60;83.90
13332;DHT22;6735;51.456;12.626;2023-11-22T05:17:28;-0.60;83.90
13332;DHT22;6735;51.456;12.626;2023-11-22T05:19:53;-0.60;83.80
13332;DHT22;6735;51.456;12.626;2023-11-22T05:22:19;-0.60;83.80
13332;DHT22;6735;51.456;12.626;2023-11-22T05:24:44;-0.60;83.90
13332;DHT22;6735;51.456;12.626;2023-11-22T05:27:10;-0.70;84.00
13332;DHT22;6735;51.456;12.626;2023-11-22T05:29:36;-0.70;83.90
13332;DHT22;6735;51.456;12.626;2023-11-22T05:32:02;-0.70;83.90
13332;DHT22;6735;51.456;12.626;2023-11-22T05:34:28;-0.80;84.00
13332;DHT22;6735;51.456;12.626;2023-11-22T05:36:54;-0.80;84.10
13332;DHT22;6735;51.456;12.626;2023-11-22T05:39:20;-0.80;84.30
13332;DHT22;6735;51.456;12.626;2023-11-22T05:41:48;-0.80;84.10
13332;DHT22;6735;51.456;12.626;2023-11-22T05:44:14;-0.80;84.10
13332;DHT22;6735;51.456;12.626;2023-11-22T05:46:39;-0.80;84.10
13332;DHT22;6735;51.456;12.626;2023-11-22T05:49:05;-0.80;84.00
13332;DHT22;6735;51.456;12.626;2023-11-22T05:51:31;-0.80;83.90
13332;DHT22;6735;51.456;12.626;2023-11-22T05:53:56;-0.80;83.80
13332;DHT22;6735;51.456;12.626;2023-11-22T05:56:22;-0.80;84.00
13332;DHT22;6735;51.456;12.626;2023-11-22T05:58:47;-0.70;84.00
13332;DHT22;6735;51.456;12.626;2023-11-22T06:01:13;-0.70;83.80
13332;DHT22;6735;51.456;12.626;2023-11-22T06:03:39;-0.70;83.80
13332;DHT22;6735;51.456;12.626;2023-11-22T06:06:05;-0.60;83.70
13332;DHT22;6735;51.456;12.626;2023-11-22T06:08:32;-0.50;83.70
13332;DHT22;6735;51.456;12.626;2023-11-22T06:10:57;-0.50;83.40
13332;DHT22;6735;51.456;12.626;2023-11-22T06:13:25;-0.50;83.40
13332;DHT22;6735;51.456;12.626;2023-11-22T06:15:50;-0.50;83.20
13332;DHT22;6735;51.456;12.626;2023-11-22T06:18:16;-0.50;83.20
13332;DHT22;6735;51.456;12.626;2023-11-22T06:20:42;-0.50;83.40
13332;DHT22;6735;51.456;12.626;2023-11-22T06:23:08;-0.50;83.30
13332;DHT22;6735;51.456;12.626;2023-11-22T06:25:34;-0.50;83.10
13332;DHT22;6735;51.456;12.626;2023-11-22T06:28:01;-0.50;83.10
13332;DHT22;6735;51.456;12.626;2023-11-22T06:30:27;-0.50;83.20
13332;DHT22;6735;51.456;12.626;2023-11-22T06:32:52;-0.60;83.20
13332;DHT22;6735;51.456;12.626;2023-11-22T06:35:19;-0.60;83.40
13332;DHT22;6735;51.456;12.626;2023-11-22T06:37:44;-0.60;83.40
13332;DHT22;6735;51.456;12.626;2023-11-22T06:40:13;-0.60;83.50
13332;DHT22;6735;51.456;12.626;2023-11-22T06:42:39;-0.60;83.50
13332;DHT22;6735;51.456;12.626;2023-11-22T06:45:05;-0.60;83.60
13332;DHT22;6735;51.456;12.626;2023-11-22T06:47:41;-0.60;83.60
13332;DHT22;6735;51.456;12.626;2023-11-22T06:50:07;-0.60;83.70
13332;DHT22;6735;51.456;12.626;2023-11-22T06:52:39;-0.60;83.70
13332;DHT22;6735;51.456;12.626;2023-11-22T06:55:06;-0.50;83.70
13332;DHT22;6735;51.456;12.626;2023-11-22T06:57:38;-0.50;83.80
13332;DHT22;6735;51.456;12.626;2023-11-22T07:00:05;-0.50;83.80
13332;DHT22;6735;51.456;12.626;2023-11-22T07:02:31;-0.50;83.40
13332;DHT22;6735;51.456;12.626;2023-11-22T07:04:57;-0.50;83.60
13332;DHT22;6735;51.456;12.626;2023-11-22T07:07:24;-0.50;83.70
13332;DHT22;6735;51.456;12.626;2023-11-22T07:09:50;-0.40;83.60
13332;DHT22;6735;51.456;12.626;2023-11-22T07:12:16;-0.40;83.50
13332;DHT22;6735;51.456;12.626;2023-11-22T07:14:41;-0.30;83.30
13332;DHT22;6735;51.456;12.626;2023-11-22T07:17:08;-0.30;83.20
13332;DHT22;6735;51.456;12.626;2023-11-22T07:19:34;-0.30;83.10
13332;DHT22;6735;51.456;12.626;2023-11-22T07:22:06;-0.30;83.00
13332;DHT22;6735;51.456;12.626;2023-11-22T07:24:44;-0.30;82.90
13332;DHT22;6735;51.456;12.626;2023-11-22T07:27:14;-0.30;82.70
13332;DHT22;6735;51.456;12.626;2023-11-22T07:29:43;-0.30;82.70
13332;DHT22;6735;51.456;12.626;2023-11-22T07:32:10;-0.30;82.80
13332;DHT22;6735;51.456;12.626;2023-11-22T07:34:37;-0.30;82.60
13332;DHT22;6735;51.456;12.626;2023-11-22T07:37:03;-0.30;82.50
13332;DHT22;6735;51.456;12.626;2023-11-22T07:39:29;-0.20;82.70
13332;DHT22;6735;51.456;12.626;2023-11-22T07:41:55;-0.30;82.00
13332;DHT22;6735;51.456;12.626;2023-11-22T07:44:24;-0.30;81.70
13332;DHT22;6735;51.456;12.626;2023-11-22T07:46:50;-0.30;82.00
13332;DHT22;6735;51.456;12.626;2023-11-22T07:49:25;-0.30;82.10
13332;DHT22;6735;51.456;12.626;2023-11-22T07:51:51;-0.20;82.00
13332;DHT22;6735;51.456;12.626;2023-11-22T07:54:20;-0.20;81.80
13332;DHT22;6735;51.456;12.626;2023-11-22T07:56:50;-0.30;81.70
13332;DHT22;6735;51.456;12.626;2023-11-22T07:59:18;-0.40;81.00
13332;DHT22;6735;51.456;12.626;2023-11-22T08:01:43;-0.30;81.80
13332;DHT22;6735;51.456;12.626;2023-11-22T08:04:09;-0.30;81.80
13332;DHT22;6735;51.456;12.626;2023-11-22T08:06:35;-0.30;82.00
13332;DHT22;6735;51.456;12.626;2023-11-22T08:09:00;-0.40;81.60
13332;DHT22;6735;51.456;12.626;2023-11-22T08:11:29;-0.30;82.10
13332;DHT22;6735;51.456;12.626;2023-11-22T08:13:55;-0.20;82.10
13332;DHT22;6735;51.456;12.626;2023-11-22T08:16:23;-0.20;82.00
13332;DHT22;6735;51.456;12.626;2023-11-22T08:18:48;-0.10;82.00
13332;DHT22;6735;51.456;12.626;2023-11-22T08:21:14;-0.10;81.20
13332;DHT22;6735;51.456;12.626;2023-11-22T08:23:40;-0.10;81.30
13332;DHT22;6735;51.456;12.626;2023-11-22T08:26:05;-0.10;81.10
13332;DHT22;6735;51.456;12.626;2023-11-22T08:28:32;-0.10;81.20
13332;DHT22;6735;51.456;12.626;2023-11-22T08:30:57;-0.10;81.00
13332;DHT22;6735;51.456;12.626;2023-11-22T08:33:23;0.00;81.20
13332;DHT22;6735;51.456;12.626;2023-11-22T08:35:48;0.00;81.50
13332;DHT22;6735;51.456;12.626;2023-11-22T08:38:17;0.00;81.40
13332;DHT22;6735;51.456;12.626;2023-11-22T08:40:44;0.10;80.50
13332;DHT22;6735;51.456;12.626;2023-11-22T08:43:10;0.10;80.50
13332;DHT22;6735;51.456;12.626;2023-11-22T08:45:35;0.20;80.60
13332;DHT22;6735;51.456;12.626;2023-11-22T08:48:01;0.10;79.70
13332;DHT22;6735;51.456;12.626;2023-11-22T08:50:26;0.10;79.50
13332;DHT22;6735;51.456;12.626;2023-11-22T08:52:52;0.10;79.60
13332;DHT22;6735;51.456;12.626;2023-11-22T08:55:19;0.10;79.60
13332;DHT22;6735;51.456;12.626;2023-11-22T08:57:48;0.20;79.90
13332;DHT22;6735;51.456;12.626;2023-11-22T09:00:14;0.30;79.60
13332;DHT22;6735;51.456;12.626;2023-11-22T09:02:39;0.20;79.10
13332;DHT22;6735;51.456;12.626;2023-11-22T09:05:06;0.30;78.80
13332;DHT22;6735;51.456;12.626;2023-11-22T09:07:34;0.30;79.00
13332;DHT22;6735;51.456;12.626;2023-11-22T09:10:02;0.20;78.80
13332;DHT22;6735;51.456;12.626;2023-11-22T09:12:35;0.20;78.40
13332;DHT22;6735;51.456;12.626;2023-11-22T09:15:01;0.30;79.20
13332;DHT22;6735;51.456;12.626;2023-11-22T09:17:27;0.50;79.90
13332;DHT22;6735;51.456;12.626;2023-11-22T09:19:52;0.60;79.10
13332;DHT22;6735;51.456;12.626;2023-11-22T09:22:21;0.70;78.20
13332;DHT22;6735;51.456;12.626;2023-11-22T09:24:46;0.70;78.60
13332;DHT22;6735;51.456;12.626;2023-11-22T09:27:12;0.80;78.50
13332;DHT22;6735;51.456;12.626;2023-11-22T09:29:41;0.80;77.60
13332;DHT22;6735;51.456;12.626;2023-11-22T09:32:07;0.90;78.50
13332;DHT22;6735;51.456;12.626;2023-11-22T09:34:32;1.00;77.60
13332;DHT22;6735;51.456;12.626;2023-11-22T09:36:58;1.10;78.00
13332;DHT22;6735;51.456;12.626;2023-11-22T09:39:24;1.10;77.20
13332;DHT22;6735;51.456;12.626;2023-11-22T09:41:50;1.10;76.80
13332;DHT22;6735;51.456;12.626;2023-11-22T09:44:17;1.10;77.10
13332;DHT22;6735;51.456;12.626;2023-11-22T09:46:43;1.10;76.60
13332;DHT22;6735;51.456;12.626;2023-11-22T09:49:10;1.00;76.30
13332;DHT22;6735;51.456;12.626;2023-11-22T09:51:37;1.10;77.20
13332;DHT22;6735;51.456;12.626;2023-11-22T09:54:07;1.00;77.10
13332;DHT22;6735;51.456;12.626;2023-11-22T09:56:37;1.10;77.40
13332;DHT22;6735;51.456;12.626;2023-11-22T09:59:04;1.20;77.70
13332;DHT22;6735;51.456;12.626;2023-11-22T10:01:30;1.20;77.80
13332;DHT22;6735;51.456;12.626;2023-11-22T10:03:57;1.20;77.00
13332;DHT22;6735;51.456;12.626;2023-11-22T10:06:23;1.30;77.10
13332;DHT22;6735;51.456;12.626;2023-11-22T10:08:49;1.10;76.30
13332;DHT22;6735;51.456;12.626;2023-11-22T10:11:16;0.90;76.80
13332;DHT22;6735;51.456;12.626;2023-11-22T10:13:49;0.90;77.30
13332;DHT22;6735;51.456;12.626;2023-11-22T10:16:16;1.00;77.60
13332;DHT22;6735;51.456;12.626;2023-11-22T10:18:44;1.10;78.10
13332;DHT22;6735;51.456;12.626;2023-11-22T10:21:24;1.10;77.30
13332;DHT22;6735;51.456;12.626;2023-11-22T10:24:10;1.30;78.90
13332;DHT22;6735;51.456;12.626;2023-11-22T10:26:35;1.50;78.10
13332;DHT22;6735;51.456;12.626;2023-11-22T10:29:01;1.50;76.20
13332;DHT22;6735;51.456;12.626;2023-11-22T10:31:27;1.50;76.80
13332;DHT22;6735;51.456;12.626;2023-11-22T10:33:54;1.70;77.20
13332;DHT22;6735;51.456;12.626;2023-11-22T10:36:21;1.70;77.30
13332;DHT22;6735;51.456;12.626;2023-11-22T10:38:48;1.80;77.20
13332;DHT22;6735;51.456;12.626;2023-11-22T10:41:14;1.80;76.40
13332;DHT22;6735;51.456;12.626;2023-11-22T10:43:40;1.70;75.40
13332;DHT22;6735;51.456;12.626;2023-11-22T10:46:07;1.70;75.80
13332;DHT22;6735;51.456;12.626;2023-11-22T10:48:35;1.80;75.90
13332;DHT22;6735;51.456;12.626;2023-11-22T10:51:03;1.80;75.70
13332;DHT22;6735;51.456;12.626;2023-11-22T10:53:38;1.90;77.00
13332;DHT22;6735;51.456;12.626;2023-11-22T10:56:12;2.00;76.50
13332;DHT22;6735;51.456;12.626;2023-11-22T11:01:11;2.10;76.60
13332;DHT22;6735;51.456;12.626;2023-11-22T11:03:40;1.90;76.10
13332;DHT22;6735;51.456;12.626;2023-11-22T11:06:09;1.80;75.50
13332;DHT22;6735;51.456;12.626;2023-11-22T11:08:38;1.90;75.60
13332;DHT22;6735;51.456;12.626;2023-11-22T11:11:05;1.90;76.10
13332;DHT22;6735;51.456;12.626;2023-11-22T11:13:31;1.90;75.60
13332;DHT22;6735;51.456;12.626;2023-11-22T11:15:58;2.00;75.90
13332;DHT22;6735;51.456;12.626;2023-11-22T11:18:25;2.10;75.90
13332;DHT22;6735;51.456;12.626;2023-11-22T11:20:57;2.20;76.00
13332;DHT22;6735;51.456;12.626;2023-11-22T11:23:25;2.20;75.70
13332;DHT22;6735;51.456;12.626;2023-11-22T11:25:56;2.20;75.00
13332;DHT22;6735;51.456;12.626;2023-11-22T11:28:23;2.30;75.40
13332;DHT22;6735;51.456;12.626;2023-11-22T11:30:51;2.10;74.90
13332;DHT22;6735;51.456;12.626;2023-11-22T11:33:26;2.20;74.70
13332;DHT22;6735;51.456;12.626;2023-11-22T11:35:51;2.20;75.30
13332;DHT22;6735;51.456;12.626;2023-11-22T11:38:21;2.20;75.50
13332;DHT22;6735;51.456;12.626;2023-11-22T11:40:48;2.30;75.40
13332;DHT22;6735;51.456;12.626;2023-11-22T11:43:13;2.20;74.40
13332;DHT22;6735;51.456;12.626;2023-11-22T11:45:41;2.20;74.20
13332;DHT22;6735;51.456;12.626;2023-11-22T11:48:15;2.30;74.90
13332;DHT22;6735;51.456;12.626;2023-11-22T11:50:41;2.30;75.10
13332;DHT22;6735;51.456;12.626;2023-11-22T11:53:07;2.30;74.70
13332;DHT22;6735;51.456;12.626;2023-11-22T11:55:32;2.30;74.20
13332;DHT22;6735;51.456;12.626;2023-11-22T11:58:04;2.20;74.40
13332;DHT22;6735;51.456;12.626;2023-11-22T12:00:31;2.10;74.50
13332;DHT22;6735;51.456;12.626;2023-11-22T12:02:56;2.10;74.40
13332;DHT22;6735;51.456;12.626;2023-11-22T12:05:22;2.00;74.50
13332;DHT22;6735;51.456;12.626;2023-11-22T12:07:47;2.00;75.00
13332;DHT22;6735;51.456;12.626;2023-11-22T12:10:13;2.10;74.60
13332;DHT22;6735;51.456;12.626;2023-11-22T12:12:39;2.10;74.60
13332;DHT22;6735;51.456;12.626;2023-11-22T12:15:05;2.10;74.60
13332;DHT22;6735;51.456;12.626;2023-11-22T12:17:35;2.10;74.20
13332;DHT22;6735;51.456;12.626;2023-11-22T12:20:15;2.10;74.70
13332;DHT22;6735;51.456;12.626;2023-11-22T12:22:46;2.10;75.20
13332;DHT22;6735;51.456;12.626;2023-11-22T12:25:11;2.00;74.30
13332;DHT22;6735;51.456;12.626;2023-11-22T12:27:42;1.90;73.40
13332;DHT22;6735;51.456;12.626;2023-11-22T12:30:09;1.90;74.50
13332;DHT22;6735;51.456;12.626;2023-11-22T12:32:38;2.00;75.50
13332;DHT22;6735;51.456;12.626;2023-11-22T12:35:05;1.90;74.30
13332;DHT22;6735;51.456;12.626;2023-11-22T12:37:33;1.80;74.10
13332;DHT22;6735;51.456;12.626;2023-11-22T12:39:58;1.90;75.10
13332;DHT22;6735;51.456;12.626;2023-11-22T12:42:24;1.90;74.20
13332;DHT22;6735;51.456;12.626;2023-11-22T12:44:51;2.00;74.20
13332;DHT22;6735;51.456;12.626;2023-11-22T12:47:38;2.00;74.00
13332;DHT22;6735;51.456;12.626;2023-11-22T12:50:04;1.80;74.30
13332;DHT22;6735;51.456;12.626;2023-11-22T12:52:29;1.80;74.70
13332;DHT22;6735;51.456;12.626;2023-11-22T12:54:58;1.90;74.80
13332;DHT22;6735;51.456;12.626;2023-11-22T12:57:24;1.90;74.70
13332;DHT22;6735;51.456;12.626;2023-11-22T12:59:49;1.80;74.10
13332;DHT22;6735;51.456;12.626;2023-11-22T13:02:15;1.70;74.90
13332;DHT22;6735;51.456;12.626;2023-11-22T13:04:42;1.50;75.70
13332;DHT22;6735;51.456;12.626;2023-11-22T13:07:08;1.50;76.40
13332;DHT22;6735;51.456;12.626;2023-11-22T13:09:34;1.50;76.20
13332;DHT22;6735;51.456;12.626;2023-11-22T13:12:01;1.50;76.10
13332;DHT22;6735;51.456;12.626;2023-11-22T13:14:27;1.60;76.70
13332;DHT22;6735;51.456;12.626;2023-11-22T13:16:57;1.60;76.40
13332;DHT22;6735;51.456;12.626;2023-11-22T13:19:23;1.60;76.10
13332;DHT22;6735;51.456;12.626;2023-11-22T13:21:50;1.70;75.90
13332;DHT22;6735;51.456;12.626;2023-11-22T13:24:15;1.70;75.60
13332;DHT22;6735;51.456;12.626;2023-11-22T13:26:43;1.60;75.70
13332;DHT22;6735;51.456;12.626;2023-11-22T13:29:09;1.50;76.10
13332;DHT22;6735;51.456;12.626;2023-11-22T13:31:34;1.50;76.40
13332;DHT22;6735;51.456;12.626;2023-11-22T13:34:00;1.40;76.60
13332;DHT22;6735;51.456;12.626;2023-11-22T13:36:25;1.50;76.80
13332;DHT22;6735;51.456;12.626;2023-11-22T13:38:51;1.60;77.40
13332;DHT22;6735;51.456;12.626;2023-11-22T13:41:17;1.70;77.40
13332;DHT22;6735;51.456;12.626;2023-11-22T13:43:42;1.70;77.30
13332;DHT22;6735;51.456;12.626;2023-11-22T13:46:08;1.70;76.70
13332;DHT22;6735;51.456;12.626;2023-11-22T13:48:37;1.70;76.00
13332;DHT22;6735;51.456;12.626;2023-11-22T13:51:03;1.70;76.30
13332;DHT22;6735;51.456;12.626;2023-11-22T13:53:29;1.70;76.30
13332;DHT22;6735;51.456;12.626;2023-11-22T13:55:59;1.80;76.40
13332;DHT22;6735;51.456;12.626;2023-11-22T13:58:26;1.80;75.50
13332;DHT22;6735;51.456;12.626;2023-11-22T14:00:51;1.60;76.10
13332;DHT22;6735;51.456;12.626;2023-11-22T14:03:19;1.40;75.70
13332;DHT22;6735;51.456;12.626;2023-11-22T14:05:47;1.50;76.20
13332;DHT22;6735;51.456;12.626;2023-11-22T14:08:13;1.50;75.90
13332;DHT22;6735;51.456;12.626;2023-11-22T14:10:40;1.40;76.40
13332;DHT22;6735;51.456;12.626;2023-11-22T14:13:05;1.60;76.60
13332;DHT22;6735;51.456;12.626;2023-11-22T14:15:33;1.50;76.30
13332;DHT22;6735;51.456;12.626;2023-11-22T14:17:59;1.50;76.40
13332;DHT22;6735;51.456;12.626;2023-11-22T14:20:25;1.50;76.50
13332;DHT22;6735;51.456;12.626;2023-11-22T14:22:51;1.40;76.70
13332;DHT22;6735;51.456;12.626;2023-11-22T14:25:17;1.40;77.10
13332;DHT22;6735;51.456;12.626;2023-11-22T14:27:45;1.50;77.20
13332;DHT22;6735;51.456;12.626;2023-11-22T14:30:12;1.50;77.40
13332;DHT22;6735;51.456;12.626;2023-11-22T14:32:42;1.50;77.60
13332;DHT22;6735;51.456;12.626;2023-11-22T14:35:09;1.50;77.30
13332;DHT22;6735;51.456;12.626;2023-11-22T14:37:35;1.40;77.00
13332;DHT22;6735;51.456;12.626;2023-11-22T14:40:01;1.40;77.20
13332;DHT22;6735;51.456;12.626;2023-11-22T14:42:29;1.40;77.40
13332;DHT22;6735;51.456;12.626;2023-11-22T14:44:55;1.40;77.10
13332;DHT22;6735;51.456;12.626;2023-11-22T14:47:20;1.40;77.40
13332;DHT22;6735;51.456;12.626;2023-11-22T14:49:51;1.50;77.00
13332;DHT22;6735;51.456;12.626;2023-11-22T14:52:16;1.40;76.70
13332;DHT22;6735;51.456;12.626;2023-11-22T14:54:43;1.30;77.00
13332;DHT22;6735;51.456;12.626;2023-11-22T14:57:12;1.30;77.10
13332;DHT22;6735;51.456;12.626;2023-11-22T14:59:38;1.40;77.50
13332;DHT22;6735;51.456;12.626;2023-11-22T15:02:04;1.40;77.50
13332;DHT22;6735;51.456;12.626;2023-11-22T15:04:33;1.40;77.50
13332;DHT22;6735;51.456;12.626;2023-11-22T15:07:01;1.40;77.60
13332;DHT22;6735;51.456;12.626;2023-11-22T15:09:27;1.40;77.30
13332;DHT22;6735;51.456;12.626;2023-11-22T15:11:52;1.40;77.60
13332;DHT22;6735;51.456;12.626;2023-11-22T15:14:17;1.50;77.80
13332;DHT22;6735;51.456;12.626;2023-11-22T15:16:43;1.60;77.80
13332;DHT22;6735;51.456;12.626;2023-11-22T15:19:08;1.60;77.80
13332;DHT22;6735;51.456;12.626;2023-11-22T15:21:35;1.60;77.50
13332;DHT22;6735;51.456;12.626;2023-11-22T15:24:00;1.60;77.20
13332;DHT22;6735;51.456;12.626;2023-11-22T15:26:26;1.60;77.00
13332;DHT22;6735;51.456;12.626;2023-11-22T15:28:52;1.60;77.00
13332;DHT22;6735;51.456;12.626;2023-11-22T15:31:18;1.60;77.20
13332;DHT22;6735;51.456;12.626;2023-11-22T15:33:44;1.60;77.20
13332;DHT22;6735;51.456;12.626;2023-11-22T15:36:11;1.60;77.50
13332;DHT22;6735;51.456;12.626;2023-11-22T15:38:36;1.60;77.70
13332;DHT22;6735;51.456;12.626;2023-11-22T15:41:02;1.60;77.80